sensor_id;sensor_type;location;lat;lon;timestamp;P1;durP1;ratioP1;P2;durP2;ratioP2
38972;SDS011;25333;50.762;4.470;2023-02-04T00:04:07;21.92;;;14.25;;
38972;SDS011;25333;50.762;4.470;2023-02-04T00:06:36;21.70;;;15.23;;
38972;SDS011;25333;50.762;4.470;2023-02-04T00:12:08;21.52;;;15.00;;
38972;SDS011;25333;50.762;4.470;2023-02-04T00:14:34;22.55;;;15.13;;
38972;SDS011;25333;50.762;4.470;2023-02-04T00:17:12;21.90;;;14.68;;
38972;SDS011;25333;50.762;4.470;2023-02-04T00:19:58;20.00;;;13.70;;
38972;SDS011;25333;50.762;4.470;2023-02-04T00:23:21;18.88;;;13.75;;
38972;SDS011;25333;50.762;4.470;2023-02-04T00:26:23;19.73;;;15.45;;
38972;SDS011;25333;50.762;4.470;2023-02-04T00:28:56;20.15;;;12.63;;
38972;SDS011;25333;50.762;4.470;2023-02-04T00:35:19;18.20;;;14.07;;
38972;SDS011;25333;50.762;4.470;2023-02-04T00:38:12;23.27;;;13.82;;
38972;SDS011;25333;50.762;4.470;2023-02-04T00:41:05;18.95;;;13.68;;
38972;SDS011;25333;50.762;4.470;2023-02-04T00:43:41;19.50;;;14.18;;
38972;SDS011;25333;50.762;4.470;2023-02-04T00:49:50;20.35;;;13.95;;
38972;SDS011;25333;50.762;4.470;2023-02-04T00:52:40;17.60;;;13.30;;
38972;SDS011;25333;50.762;4.470;2023-02-04T00:55:29;19.88;;;13.68;;
38972;SDS011;25333;50.762;4.470;2023-02-04T01:04:44;23.50;;;14.00;;
38972;SDS011;25333;50.762;4.470;2023-02-04T01:07:21;18.10;;;13.63;;
38972;SDS011;25333;50.762;4.470;2023-02-04T01:12:27;16.48;;;13.02;;
38972;SDS011;25333;50.762;4.470;2023-02-04T01:21:13;16.73;;;13.32;;
38972;SDS011;25333;50.762;4.470;2023-02-04T01:23:50;20.42;;;13.48;;
38972;SDS011;25333;50.762;4.470;2023-02-04T01:26:19;17.08;;;13.43;;
38972;SDS011;25333;50.762;4.470;2023-02-04T01:28:47;18.45;;;12.95;;
38972;SDS011;25333;50.762;4.470;2023-02-04T01:31:51;17.27;;;12.70;;
38972;SDS011;25333;50.762;4.470;2023-02-04T01:34:46;19.85;;;14.10;;
38972;SDS011;25333;50.762;4.470;2023-02-04T01:37:48;20.85;;;14.95;;
38972;SDS011;25333;50.762;4.470;2023-02-04T01:46:44;25.55;;;16.85;;
38972;SDS011;25333;50.762;4.470;2023-02-04T01:52:49;20.15;;;14.77;;
38972;SDS011;25333;50.762;4.470;2023-02-04T01:55:26;20.45;;;16.27;;
38972;SDS011;25333;50.762;4.470;2023-02-04T01:57:59;20.83;;;16.55;;
38972;SDS011;25333;50.762;4.470;2023-02-04T02:00:38;20.23;;;14.55;;
38972;SDS011;25333;50.762;4.470;2023-02-04T02:03:21;21.05;;;15.55;;
38972;SDS011;25333;50.762;4.470;2023-02-04T02:06:03;19.90;;;15.98;;
38972;SDS011;25333;50.762;4.470;2023-02-04T02:09:10;22.35;;;17.67;;
38972;SDS011;25333;50.762;4.470;2023-02-04T02:25:20;19.38;;;15.85;;
38972;SDS011;25333;50.762;4.470;2023-02-04T02:28:53;21.42;;;16.80;;
38972;SDS011;25333;50.762;4.470;2023-02-04T02:32:08;21.48;;;17.52;;
38972;SDS011;25333;50.762;4.470;2023-02-04T02:43:38;20.75;;;16.27;;
38972;SDS011;25333;50.762;4.470;2023-02-04T02:46:17;18.63;;;15.85;;
38972;SDS011;25333;50.762;4.470;2023-02-04T02:49:07;18.67;;;15.00;;
38972;SDS011;25333;50.762;4.470;2023-02-04T02:51:43;19.38;;;14.50;;
38972;SDS011;25333;50.762;4.470;2023-02-04T02:54:18;17.90;;;13.77;;
38972;SDS011;25333;50.762;4.470;2023-02-04T02:56:54;17.83;;;13.70;;
38972;SDS011;25333;50.762;4.470;2023-02-04T02:59:20;18.33;;;13.30;;
38972;SDS011;25333;50.762;4.470;2023-02-04T03:02:08;15.93;;;12.57;;
38972;SDS011;25333;50.762;4.470;2023-02-04T03:05:12;17.75;;;12.23;;
38972;SDS011;25333;50.762;4.470;2023-02-04T03:08:17;16.83;;;12.85;;
38972;SDS011;25333;50.762;4.470;2023-02-04T03:11:09;15.40;;;10.55;;
38972;SDS011;25333;50.762;4.470;2023-02-04T03:14:09;16.57;;;11.40;;
38972;SDS011;25333;50.762;4.470;2023-02-04T03:23:31;16.10;;;11.23;;
38972;SDS011;25333;50.762;4.470;2023-02-04T03:26:51;13.45;;;10.32;;
38972;SDS011;25333;50.762;4.470;2023-02-04T03:29:57;14.35;;;10.48;;
38972;SDS011;25333;50.762;4.470;2023-02-04T03:33:00;14.20;;;10.15;;
38972;SDS011;25333;50.762;4.470;2023-02-04T03:35:44;13.25;;;10.10;;
38972;SDS011;25333;50.762;4.470;2023-02-04T03:42:13;7.77;;;5.83;;
38972;SDS011;25333;50.762;4.470;2023-02-04T03:44:39;7.88;;;5.65;;
38972;SDS011;25333;50.762;4.470;2023-02-04T03:47:15;8.07;;;5.73;;
38972;SDS011;25333;50.762;4.470;2023-02-04T03:56:05;7.55;;;5.80;;
38972;SDS011;25333;50.762;4.470;2023-02-04T03:58:34;8.05;;;5.03;;
38972;SDS011;25333;50.762;4.470;2023-02-04T04:01:02;7.20;;;4.80;;
38972;SDS011;25333;50.762;4.470;2023-02-04T04:06:22;7.93;;;6.00;;
38972;SDS011;25333;50.762;4.470;2023-02-04T04:08:48;7.93;;;5.53;;
38972;SDS011;25333;50.762;4.470;2023-02-04T04:11:14;9.32;;;6.60;;
38972;SDS011;25333;50.762;4.470;2023-02-04T04:13:39;7.68;;;5.57;;
38972;SDS011;25333;50.762;4.470;2023-02-04T04:16:10;7.88;;;5.93;;
38972;SDS011;25333;50.762;4.470;2023-02-04T04:18:39;8.23;;;6.50;;
38972;SDS011;25333;50.762;4.470;2023-02-04T04:21:06;9.15;;;5.68;;
38972;SDS011;25333;50.762;4.470;2023-02-04T04:23:36;6.90;;;5.22;;
38972;SDS011;25333;50.762;4.470;2023-02-04T04:26:12;7.60;;;5.68;;
38972;SDS011;25333;50.762;4.470;2023-02-04T04:28:41;7.38;;;5.50;;
38972;SDS011;25333;50.762;4.470;2023-02-04T04:31:28;7.38;;;5.88;;
38972;SDS011;25333;50.762;4.470;2023-02-04T04:33:53;6.85;;;5.05;;
38972;SDS011;25333;50.762;4.470;2023-02-04T04:36:18;6.87;;;4.97;;
38972;SDS011;25333;50.762;4.470;2023-02-04T04:38:44;6.93;;;5.40;;
38972;SDS011;25333;50.762;4.470;2023-02-04T04:41:10;6.18;;;4.45;;
38972;SDS011;25333;50.762;4.470;2023-02-04T04:43:36;8.47;;;5.57;;
38972;SDS011;25333;50.762;4.470;2023-02-04T04:46:03;7.60;;;5.05;;
38972;SDS011;25333;50.762;4.470;2023-02-04T04:48:29;6.23;;;4.90;;
38972;SDS011;25333;50.762;4.470;2023-02-04T04:50:55;7.45;;;5.32;;
38972;SDS011;25333;50.762;4.470;2023-02-04T04:53:22;6.72;;;4.85;;
38972;SDS011;25333;50.762;4.470;2023-02-04T04:55:47;8.70;;;5.23;;
38972;SDS011;25333;50.762;4.470;2023-02-04T04:58:13;9.48;;;6.47;;
38972;SDS011;25333;50.762;4.470;2023-02-04T05:00:39;5.57;;;4.23;;
38972;SDS011;25333;50.762;4.470;2023-02-04T05:03:07;5.78;;;4.05;;
38972;SDS011;25333;50.762;4.470;2023-02-04T05:05:33;6.57;;;5.30;;
38972;SDS011;25333;50.762;4.470;2023-02-04T05:08:03;6.22;;;4.75;;
38972;SDS011;25333;50.762;4.470;2023-02-04T05:10:29;7.43;;;5.32;;
38972;SDS011;25333;50.762;4.470;2023-02-04T05:12:55;6.90;;;5.17;;
38972;SDS011;25333;50.762;4.470;2023-02-04T05:15:20;6.78;;;5.47;;
38972;SDS011;25333;50.762;4.470;2023-02-04T05:17:46;8.67;;;5.77;;
38972;SDS011;25333;50.762;4.470;2023-02-04T05:20:22;7.68;;;5.82;;
38972;SDS011;25333;50.762;4.470;2023-02-04T05:22:48;7.60;;;5.13;;
38972;SDS011;25333;50.762;4.470;2023-02-04T05:25:20;8.35;;;5.55;;
38972;SDS011;25333;50.762;4.470;2023-02-04T05:27:47;7.15;;;5.40;;
38972;SDS011;25333;50.762;4.470;2023-02-04T05:30:13;9.80;;;6.30;;
38972;SDS011;25333;50.762;4.470;2023-02-04T05:32:39;8.07;;;5.93;;
38972;SDS011;25333;50.762;4.470;2023-02-04T05:35:05;8.40;;;5.13;;
38972;SDS011;25333;50.762;4.470;2023-02-04T05:37:31;7.75;;;5.57;;
38972;SDS011;25333;50.762;4.470;2023-02-04T05:39:57;9.07;;;6.35;;
38972;SDS011;25333;50.762;4.470;2023-02-04T05:42:23;7.80;;;4.90;;
38972;SDS011;25333;50.762;4.470;2023-02-04T05:44:53;7.57;;;5.47;;
38972;SDS011;25333;50.762;4.470;2023-02-04T05:47:25;8.50;;;5.70;;
38972;SDS011;25333;50.762;4.470;2023-02-04T05:49:51;10.05;;;5.68;;
38972;SDS011;25333;50.762;4.470;2023-02-04T05:52:17;7.50;;;5.60;;
38972;SDS011;25333;50.762;4.470;2023-02-04T05:54:45;10.93;;;6.50;;
38972;SDS011;25333;50.762;4.470;2023-02-04T05:57:10;7.72;;;5.40;;
38972;SDS011;25333;50.762;4.470;2023-02-04T05:59:36;7.10;;;5.53;;
38972;SDS011;25333;50.762;4.470;2023-02-04T06:02:07;9.18;;;6.32;;
38972;SDS011;25333;50.762;4.470;2023-02-04T06:04:38;8.13;;;5.22;;
38972;SDS011;25333;50.762;4.470;2023-02-04T06:07:05;10.18;;;6.53;;
38972;SDS011;25333;50.762;4.470;2023-02-04T06:09:30;8.05;;;5.82;;
38972;SDS011;25333;50.762;4.470;2023-02-04T06:12:22;9.63;;;6.67;;
38972;SDS011;25333;50.762;4.470;2023-02-04T06:14:56;11.80;;;7.40;;
38972;SDS011;25333;50.762;4.470;2023-02-04T06:17:22;10.73;;;7.68;;
38972;SDS011;25333;50.762;4.470;2023-02-04T06:19:52;13.88;;;8.80;;
38972;SDS011;25333;50.762;4.470;2023-02-04T06:22:19;14.35;;;9.80;;
38972;SDS011;25333;50.762;4.470;2023-02-04T06:24:45;13.75;;;9.10;;
38972;SDS011;25333;50.762;4.470;2023-02-04T06:27:11;15.33;;;10.43;;
38972;SDS011;25333;50.762;4.470;2023-02-04T06:32:29;16.33;;;9.73;;
38972;SDS011;25333;50.762;4.470;2023-02-04T06:34:59;11.95;;;8.65;;
38972;SDS011;25333;50.762;4.470;2023-02-04T06:40:51;10.38;;;7.45;;
38972;SDS011;25333;50.762;4.470;2023-02-04T06:43:18;11.57;;;7.35;;
38972;SDS011;25333;50.762;4.470;2023-02-04T06:45:56;8.07;;;6.17;;
38972;SDS011;25333;50.762;4.470;2023-02-04T06:48:22;8.48;;;6.65;;
38972;SDS011;25333;50.762;4.470;2023-02-04T06:50:47;11.15;;;7.05;;
38972;SDS011;25333;50.762;4.470;2023-02-04T06:53:19;10.65;;;7.20;;
38972;SDS011;25333;50.762;4.470;2023-02-04T06:55:53;11.63;;;7.72;;
38972;SDS011;25333;50.762;4.470;2023-02-04T06:58:37;8.65;;;6.00;;
38972;SDS011;25333;50.762;4.470;2023-02-04T07:01:17;8.90;;;6.35;;
38972;SDS011;25333;50.762;4.470;2023-02-04T07:03:44;10.07;;;6.43;;
38972;SDS011;25333;50.762;4.470;2023-02-04T07:06:11;10.77;;;7.03;;
38972;SDS011;25333;50.762;4.470;2023-02-04T07:11:20;7.75;;;4.97;;
38972;SDS011;25333;50.762;4.470;2023-02-04T07:13:54;7.60;;;5.57;;
38972;SDS011;25333;50.762;4.470;2023-02-04T07:16:23;8.80;;;5.72;;
38972;SDS011;25333;50.762;4.470;2023-02-04T07:18:50;8.88;;;6.30;;
38972;SDS011;25333;50.762;4.470;2023-02-04T07:21:18;11.00;;;6.93;;
38972;SDS011;25333;50.762;4.470;2023-02-04T07:23:43;10.53;;;7.00;;
38972;SDS011;25333;50.762;4.470;2023-02-04T07:26:09;9.57;;;6.75;;
38972;SDS011;25333;50.762;4.470;2023-02-04T07:28:36;8.23;;;5.88;;
38972;SDS011;25333;50.762;4.470;2023-02-04T07:31:05;9.23;;;6.82;;
38972;SDS011;25333;50.762;4.470;2023-02-04T07:33:31;10.65;;;8.38;;
38972;SDS011;25333;50.762;4.470;2023-02-04T07:36:17;10.55;;;7.53;;
38972;SDS011;25333;50.762;4.470;2023-02-04T07:38:47;9.60;;;7.17;;
38972;SDS011;25333;50.762;4.470;2023-02-04T07:41:16;11.07;;;7.22;;
38972;SDS011;25333;50.762;4.470;2023-02-04T07:43:45;10.73;;;8.15;;
38972;SDS011;25333;50.762;4.470;2023-02-04T07:46:14;8.95;;;6.78;;
38972;SDS011;25333;50.762;4.470;2023-02-04T07:48:44;12.05;;;6.72;;
38972;SDS011;25333;50.762;4.470;2023-02-04T07:51:10;8.32;;;5.90;;
38972;SDS011;25333;50.762;4.470;2023-02-04T07:53:35;8.93;;;5.93;;
38972;SDS011;25333;50.762;4.470;2023-02-04T07:56:02;8.52;;;6.32;;
38972;SDS011;25333;50.762;4.470;2023-02-04T07:58:28;7.18;;;5.38;;
38972;SDS011;25333;50.762;4.470;2023-02-04T08:00:56;6.63;;;4.45;;
38972;SDS011;25333;50.762;4.470;2023-02-04T08:03:23;7.40;;;5.23;;
38972;SDS011;25333;50.762;4.470;2023-02-04T08:05:53;7.53;;;5.50;;
38972;SDS011;25333;50.762;4.470;2023-02-04T08:08:20;7.60;;;5.47;;
38972;SDS011;25333;50.762;4.470;2023-02-04T08:10:56;7.88;;;5.13;;
38972;SDS011;25333;50.762;4.470;2023-02-04T08:13:22;8.13;;;4.82;;
38972;SDS011;25333;50.762;4.470;2023-02-04T08:15:50;8.32;;;5.22;;
38972;SDS011;25333;50.762;4.470;2023-02-04T08:18:15;9.18;;;5.82;;
38972;SDS011;25333;50.762;4.470;2023-02-04T08:20:41;8.57;;;5.18;;
38972;SDS011;25333;50.762;4.470;2023-02-04T08:23:07;7.00;;;5.13;;
38972;SDS011;25333;50.762;4.470;2023-02-04T08:25:41;8.52;;;5.97;;
38972;SDS011;25333;50.762;4.470;2023-02-04T08:28:06;6.50;;;4.90;;
38972;SDS011;25333;50.762;4.470;2023-02-04T08:30:32;7.10;;;4.95;;
38972;SDS011;25333;50.762;4.470;2023-02-04T08:32:58;7.40;;;5.10;;
38972;SDS011;25333;50.762;4.470;2023-02-04T08:35:24;7.00;;;4.05;;
38972;SDS011;25333;50.762;4.470;2023-02-04T08:37:50;7.20;;;4.72;;
38972;SDS011;25333;50.762;4.470;2023-02-04T08:40:16;5.83;;;3.83;;
38972;SDS011;25333;50.762;4.470;2023-02-04T08:42:42;5.97;;;3.70;;
38972;SDS011;25333;50.762;4.470;2023-02-04T08:45:08;7.35;;;4.75;;
38972;SDS011;25333;50.762;4.470;2023-02-04T08:47:33;5.50;;;3.60;;
38972;SDS011;25333;50.762;4.470;2023-02-04T08:49:59;7.18;;;3.78;;
38972;SDS011;25333;50.762;4.470;2023-02-04T08:52:25;5.55;;;3.45;;
38972;SDS011;25333;50.762;4.470;2023-02-04T08:54:51;5.05;;;3.13;;
38972;SDS011;25333;50.762;4.470;2023-02-04T08:57:17;6.47;;;3.40;;
38972;SDS011;25333;50.762;4.470;2023-02-04T08:59:42;4.77;;;2.97;;
38972;SDS011;25333;50.762;4.470;2023-02-04T09:02:09;5.25;;;3.55;;
38972;SDS011;25333;50.762;4.470;2023-02-04T09:04:35;5.43;;;3.40;;
38972;SDS011;25333;50.762;4.470;2023-02-04T09:07:01;4.13;;;2.60;;
38972;SDS011;25333;50.762;4.470;2023-02-04T09:09:26;4.43;;;2.70;;
38972;SDS011;25333;50.762;4.470;2023-02-04T09:11:52;4.23;;;2.60;;
38972;SDS011;25333;50.762;4.470;2023-02-04T09:14:17;5.90;;;3.63;;
38972;SDS011;25333;50.762;4.470;2023-02-04T09:16:43;5.22;;;2.60;;
38972;SDS011;25333;50.762;4.470;2023-02-04T09:19:09;4.10;;;2.43;;
38972;SDS011;25333;50.762;4.470;2023-02-04T09:21:36;3.95;;;2.47;;
38972;SDS011;25333;50.762;4.470;2023-02-04T09:24:02;3.67;;;2.10;;
38972;SDS011;25333;50.762;4.470;2023-02-04T09:26:28;3.97;;;1.70;;
38972;SDS011;25333;50.762;4.470;2023-02-04T09:28:53;2.03;;;1.70;;
38972;SDS011;25333;50.762;4.470;2023-02-04T09:31:19;2.45;;;1.10;;
38972;SDS011;25333;50.762;4.470;2023-02-04T09:33:45;2.37;;;1.30;;
38972;SDS011;25333;50.762;4.470;2023-02-04T09:36:10;4.13;;;2.22;;
38972;SDS011;25333;50.762;4.470;2023-02-04T09:38:36;3.23;;;1.80;;
38972;SDS011;25333;50.762;4.470;2023-02-04T09:41:03;5.95;;;2.53;;
38972;SDS011;25333;50.762;4.470;2023-02-04T09:43:35;7.35;;;4.82;;
38972;SDS011;25333;50.762;4.470;2023-02-04T09:46:06;4.60;;;1.90;;
38972;SDS011;25333;50.762;4.470;2023-02-04T09:48:40;9.90;;;8.70;;
38972;SDS011;25333;50.762;4.470;2023-02-04T09:51:07;4.57;;;3.65;;
38972;SDS011;25333;50.762;4.470;2023-02-04T09:53:32;4.68;;;2.95;;
38972;SDS011;25333;50.762;4.470;2023-02-04T09:55:59;5.45;;;4.03;;
38972;SDS011;25333;50.762;4.470;2023-02-04T09:58:25;6.67;;;5.83;;
38972;SDS011;25333;50.762;4.470;2023-02-04T10:00:57;4.63;;;2.55;;
38972;SDS011;25333;50.762;4.470;2023-02-04T10:03:25;4.50;;;3.53;;
38972;SDS011;25333;50.762;4.470;2023-02-04T10:05:51;6.03;;;1.85;;
38972;SDS011;25333;50.762;4.470;2023-02-04T10:08:28;1.80;;;0.77;;
38972;SDS011;25333;50.762;4.470;2023-02-04T10:11:00;2.20;;;1.20;;
38972;SDS011;25333;50.762;4.470;2023-02-04T10:13:37;1.38;;;0.77;;
38972;SDS011;25333;50.762;4.470;2023-02-04T10:16:13;3.15;;;0.98;;
38972;SDS011;25333;50.762;4.470;2023-02-04T10:18:42;2.28;;;1.02;;
38972;SDS011;25333;50.762;4.470;2023-02-04T10:23:49;1.88;;;0.90;;
38972;SDS011;25333;50.762;4.470;2023-02-04T10:26:24;2.70;;;1.10;;
38972;SDS011;25333;50.762;4.470;2023-02-04T10:28:59;3.33;;;1.20;;
38972;SDS011;25333;50.762;4.470;2023-02-04T10:36:34;2.13;;;1.10;;
38972;SDS011;25333;50.762;4.470;2023-02-04T10:39:17;2.78;;;1.40;;
38972;SDS011;25333;50.762;4.470;2023-02-04T10:41:52;2.75;;;1.20;;
38972;SDS011;25333;50.762;4.470;2023-02-04T10:44:28;3.05;;;1.38;;
38972;SDS011;25333;50.762;4.470;2023-02-04T10:50:25;3.40;;;1.58;;
38972;SDS011;25333;50.762;4.470;2023-02-04T10:52:58;2.75;;;1.50;;
38972;SDS011;25333;50.762;4.470;2023-02-04T10:55:43;2.90;;;1.45;;
38972;SDS011;25333;50.762;4.470;2023-02-04T10:58:14;3.60;;;1.48;;
38972;SDS011;25333;50.762;4.470;2023-02-04T11:00:50;2.55;;;1.10;;
38972;SDS011;25333;50.762;4.470;2023-02-04T11:05:50;1.65;;;0.80;;
38972;SDS011;25333;50.762;4.470;2023-02-04T11:08:17;2.60;;;1.10;;
38972;SDS011;25333;50.762;4.470;2023-02-04T11:10:48;1.45;;;0.65;;
38972;SDS011;25333;50.762;4.470;2023-02-04T11:13:24;1.30;;;0.80;;
38972;SDS011;25333;50.762;4.470;2023-02-04T11:16:06;1.70;;;0.82;;
38972;SDS011;25333;50.762;4.470;2023-02-04T11:21:25;1.45;;;0.63;;
38972;SDS011;25333;50.762;4.470;2023-02-04T11:24:04;1.48;;;0.80;;
38972;SDS011;25333;50.762;4.470;2023-02-04T11:26:41;1.20;;;0.80;;
38972;SDS011;25333;50.762;4.470;2023-02-04T11:31:44;1.40;;;0.50;;
38972;SDS011;25333;50.762;4.470;2023-02-04T11:37:04;1.03;;;0.40;;
38972;SDS011;25333;50.762;4.470;2023-02-04T11:40:11;2.42;;;1.10;;
38972;SDS011;25333;50.762;4.470;2023-02-04T11:42:45;1.40;;;0.88;;
38972;SDS011;25333;50.762;4.470;2023-02-04T11:45:16;1.15;;;0.80;;
38972;SDS011;25333;50.762;4.470;2023-02-04T11:47:47;1.40;;;0.70;;
38972;SDS011;25333;50.762;4.470;2023-02-04T11:50:22;1.33;;;0.80;;
38972;SDS011;25333;50.762;4.470;2023-02-04T11:52:57;2.22;;;1.00;;
38972;SDS011;25333;50.762;4.470;2023-02-04T11:55:24;1.58;;;0.95;;
38972;SDS011;25333;50.762;4.470;2023-02-04T11:57:51;3.05;;;0.90;;
38972;SDS011;25333;50.762;4.470;2023-02-04T12:00:18;3.03;;;2.20;;
38972;SDS011;25333;50.762;4.470;2023-02-04T12:03:18;4.13;;;2.72;;
38972;SDS011;25333;50.762;4.470;2023-02-04T12:05:56;4.80;;;2.57;;
38972;SDS011;25333;50.762;4.470;2023-02-04T12:13:25;5.60;;;4.20;;
38972;SDS011;25333;50.762;4.470;2023-02-04T12:16:02;8.00;;;5.18;;
38972;SDS011;25333;50.762;4.470;2023-02-04T12:18:30;7.47;;;5.25;;
38972;SDS011;25333;50.762;4.470;2023-02-04T12:20:57;6.65;;;5.50;;
38972;SDS011;25333;50.762;4.470;2023-02-04T12:23:24;8.23;;;6.63;;
38972;SDS011;25333;50.762;4.470;2023-02-04T12:25:51;7.10;;;5.72;;
38972;SDS011;25333;50.762;4.470;2023-02-04T12:28:18;8.63;;;6.53;;
38972;SDS011;25333;50.762;4.470;2023-02-04T12:30:45;9.50;;;6.93;;
38972;SDS011;25333;50.762;4.470;2023-02-04T12:33:10;7.33;;;6.60;;
38972;SDS011;25333;50.762;4.470;2023-02-04T12:35:36;8.80;;;6.88;;
38972;SDS011;25333;50.762;4.470;2023-02-04T12:38:02;7.93;;;6.03;;
38972;SDS011;25333;50.762;4.470;2023-02-04T12:40:28;17.38;;;11.32;;
38972;SDS011;25333;50.762;4.470;2023-02-04T12:42:57;13.60;;;9.48;;
38972;SDS011;25333;50.762;4.470;2023-02-04T12:45:22;8.13;;;6.33;;
38972;SDS011;25333;50.762;4.470;2023-02-04T12:47:48;9.82;;;7.45;;
38972;SDS011;25333;50.762;4.470;2023-02-04T12:50:15;8.37;;;7.03;;
38972;SDS011;25333;50.762;4.470;2023-02-04T12:53:06;11.53;;;7.73;;
38972;SDS011;25333;50.762;4.470;2023-02-04T12:55:32;11.25;;;7.90;;
38972;SDS011;25333;50.762;4.470;2023-02-04T12:57:58;13.93;;;9.00;;
38972;SDS011;25333;50.762;4.470;2023-02-04T13:00:27;11.15;;;8.30;;
38972;SDS011;25333;50.762;4.470;2023-02-04T13:02:52;12.30;;;8.55;;
38972;SDS011;25333;50.762;4.470;2023-02-04T13:05:25;11.43;;;8.20;;
38972;SDS011;25333;50.762;4.470;2023-02-04T13:07:51;10.50;;;7.65;;
38972;SDS011;25333;50.762;4.470;2023-02-04T13:10:19;11.97;;;8.50;;
38972;SDS011;25333;50.762;4.470;2023-02-04T13:12:49;9.85;;;7.38;;
38972;SDS011;25333;50.762;4.470;2023-02-04T13:24:34;8.35;;;6.40;;
38972;SDS011;25333;50.762;4.470;2023-02-04T13:27:09;8.85;;;5.82;;
38972;SDS011;25333;50.762;4.470;2023-02-04T13:29:34;11.60;;;7.15;;
38972;SDS011;25333;50.762;4.470;2023-02-04T13:32:00;11.47;;;7.37;;
38972;SDS011;25333;50.762;4.470;2023-02-04T13:34:26;9.77;;;7.07;;
38972;SDS011;25333;50.762;4.470;2023-02-04T13:36:52;8.95;;;6.45;;
38972;SDS011;25333;50.762;4.470;2023-02-04T13:39:21;11.05;;;6.70;;
38972;SDS011;25333;50.762;4.470;2023-02-04T13:41:48;11.75;;;7.05;;
38972;SDS011;25333;50.762;4.470;2023-02-04T13:44:15;9.57;;;6.45;;
38972;SDS011;25333;50.762;4.470;2023-02-04T13:46:42;8.77;;;5.68;;
38972;SDS011;25333;50.762;4.470;2023-02-04T13:49:07;12.17;;;7.00;;
38972;SDS011;25333;50.762;4.470;2023-02-04T13:51:34;10.95;;;7.25;;
38972;SDS011;25333;50.762;4.470;2023-02-04T13:54:00;12.35;;;7.40;;
38972;SDS011;25333;50.762;4.470;2023-02-04T13:56:27;9.23;;;6.35;;
38972;SDS011;25333;50.762;4.470;2023-02-04T13:58:56;11.48;;;6.60;;
38972;SDS011;25333;50.762;4.470;2023-02-04T14:01:23;11.02;;;7.28;;
38972;SDS011;25333;50.762;4.470;2023-02-04T14:03:49;9.85;;;7.13;;
38972;SDS011;25333;50.762;4.470;2023-02-04T14:06:15;9.57;;;6.93;;
38972;SDS011;25333;50.762;4.470;2023-02-04T14:08:44;9.00;;;6.60;;
38972;SDS011;25333;50.762;4.470;2023-02-04T14:11:11;11.52;;;7.53;;
38972;SDS011;25333;50.762;4.470;2023-02-04T14:13:36;10.23;;;7.15;;
38972;SDS011;25333;50.762;4.470;2023-02-04T14:16:13;11.77;;;8.00;;
38972;SDS011;25333;50.762;4.470;2023-02-04T14:18:42;9.23;;;7.10;;
38972;SDS011;25333;50.762;4.470;2023-02-04T14:21:07;11.37;;;7.80;;
38972;SDS011;25333;50.762;4.470;2023-02-04T14:23:34;9.70;;;7.73;;
38972;SDS011;25333;50.762;4.470;2023-02-04T14:26:00;10.97;;;7.20;;
38972;SDS011;25333;50.762;4.470;2023-02-04T14:28:26;11.93;;;7.82;;
38972;SDS011;25333;50.762;4.470;2023-02-04T14:30:53;11.40;;;7.63;;
38972;SDS011;25333;50.762;4.470;2023-02-04T14:33:18;12.10;;;8.57;;
38972;SDS011;25333;50.762;4.470;2023-02-04T14:35:44;12.63;;;8.55;;
38972;SDS011;25333;50.762;4.470;2023-02-04T14:38:11;12.57;;;9.05;;
38972;SDS011;25333;50.762;4.470;2023-02-04T14:40:42;14.77;;;9.50;;
38972;SDS011;25333;50.762;4.470;2023-02-04T14:43:09;13.30;;;8.77;;
38972;SDS011;25333;50.762;4.470;2023-02-04T14:45:40;13.13;;;9.65;;
38972;SDS011;25333;50.762;4.470;2023-02-04T14:48:06;13.43;;;10.87;;
38972;SDS011;25333;50.762;4.470;2023-02-04T14:50:34;13.30;;;9.88;;
38972;SDS011;25333;50.762;4.470;2023-02-04T14:53:05;13.15;;;8.73;;
38972;SDS011;25333;50.762;4.470;2023-02-04T14:55:35;13.90;;;9.38;;
38972;SDS011;25333;50.762;4.470;2023-02-04T14:58:00;11.73;;;8.27;;
38972;SDS011;25333;50.762;4.470;2023-02-04T15:00:26;13.50;;;9.02;;
38972;SDS011;25333;50.762;4.470;2023-02-04T15:02:52;11.40;;;8.43;;
38972;SDS011;25333;50.762;4.470;2023-02-04T15:05:17;9.88;;;7.85;;
38972;SDS011;25333;50.762;4.470;2023-02-04T15:07:45;10.25;;;7.82;;
38972;SDS011;25333;50.762;4.470;2023-02-04T15:10:11;12.20;;;8.57;;
38972;SDS011;25333;50.762;4.470;2023-02-04T15:12:40;10.60;;;8.32;;
38972;SDS011;25333;50.762;4.470;2023-02-04T15:15:06;12.20;;;8.07;;
38972;SDS011;25333;50.762;4.470;2023-02-04T15:17:33;10.68;;;8.88;;
38972;SDS011;25333;50.762;4.470;2023-02-04T15:20:02;12.80;;;9.70;;
38972;SDS011;25333;50.762;4.470;2023-02-04T15:22:28;15.40;;;10.40;;
38972;SDS011;25333;50.762;4.470;2023-02-04T15:24:55;14.98;;;10.85;;
38972;SDS011;25333;50.762;4.470;2023-02-04T15:27:21;18.63;;;12.38;;
38972;SDS011;25333;50.762;4.470;2023-02-04T15:29:59;18.52;;;13.18;;
38972;SDS011;25333;50.762;4.470;2023-02-04T15:32:26;19.20;;;12.85;;
38972;SDS011;25333;50.762;4.470;2023-02-04T15:34:52;16.80;;;11.67;;
38972;SDS011;25333;50.762;4.470;2023-02-04T15:37:19;18.75;;;12.38;;
38972;SDS011;25333;50.762;4.470;2023-02-04T15:39:51;17.27;;;12.30;;
38972;SDS011;25333;50.762;4.470;2023-02-04T15:42:20;17.35;;;13.48;;
38972;SDS011;25333;50.762;4.470;2023-02-04T15:44:45;16.38;;;13.13;;
38972;SDS011;25333;50.762;4.470;2023-02-04T15:47:14;16.95;;;13.30;;
38972;SDS011;25333;50.762;4.470;2023-02-04T15:50:05;26.08;;;17.45;;
38972;SDS011;25333;50.762;4.470;2023-02-04T15:52:56;20.10;;;16.45;;
38972;SDS011;25333;50.762;4.470;2023-02-04T15:55:22;18.87;;;14.50;;
38972;SDS011;25333;50.762;4.470;2023-02-04T15:58:03;20.75;;;16.55;;
38972;SDS011;25333;50.762;4.470;2023-02-04T16:00:28;21.80;;;15.73;;
38972;SDS011;25333;50.762;4.470;2023-02-04T16:02:55;22.92;;;16.80;;
38972;SDS011;25333;50.762;4.470;2023-02-04T16:05:21;19.90;;;15.30;;
38972;SDS011;25333;50.762;4.470;2023-02-04T16:07:46;22.73;;;16.85;;
38972;SDS011;25333;50.762;4.470;2023-02-04T16:10:14;21.38;;;14.93;;
38972;SDS011;25333;50.762;4.470;2023-02-04T16:12:41;22.45;;;16.40;;
38972;SDS011;25333;50.762;4.470;2023-02-04T16:15:09;22.95;;;16.15;;
38972;SDS011;25333;50.762;4.470;2023-02-04T16:17:36;21.10;;;16.25;;
38972;SDS011;25333;50.762;4.470;2023-02-04T16:20:02;24.90;;;17.20;;
38972;SDS011;25333;50.762;4.470;2023-02-04T16:22:28;30.65;;;17.90;;
38972;SDS011;25333;50.762;4.470;2023-02-04T16:24:54;23.13;;;17.08;;
38972;SDS011;25333;50.762;4.470;2023-02-04T16:27:20;26.67;;;18.08;;
38972;SDS011;25333;50.762;4.470;2023-02-04T16:29:49;24.30;;;17.88;;
38972;SDS011;25333;50.762;4.470;2023-02-04T16:32:16;24.00;;;18.58;;
38972;SDS011;25333;50.762;4.470;2023-02-04T16:34:42;18.95;;;15.35;;
38972;SDS011;25333;50.762;4.470;2023-02-04T16:37:10;27.00;;;16.35;;
38972;SDS011;25333;50.762;4.470;2023-02-04T16:39:38;21.52;;;15.13;;
38972;SDS011;25333;50.762;4.470;2023-02-04T16:42:15;22.83;;;15.75;;
38972;SDS011;25333;50.762;4.470;2023-02-04T16:44:46;23.33;;;14.10;;
38972;SDS011;25333;50.762;4.470;2023-02-04T16:47:16;16.45;;;13.55;;
38972;SDS011;25333;50.762;4.470;2023-02-04T16:49:42;17.13;;;14.13;;
38972;SDS011;25333;50.762;4.470;2023-02-04T16:52:12;18.43;;;12.33;;
38972;SDS011;25333;50.762;4.470;2023-02-04T16:54:57;20.35;;;12.32;;
38972;SDS011;25333;50.762;4.470;2023-02-04T16:57:28;15.50;;;12.38;;
38972;SDS011;25333;50.762;4.470;2023-02-04T17:03:02;15.45;;;11.38;;
38972;SDS011;25333;50.762;4.470;2023-02-04T17:05:29;16.73;;;12.00;;
38972;SDS011;25333;50.762;4.470;2023-02-04T17:07:58;16.33;;;11.20;;
38972;SDS011;25333;50.762;4.470;2023-02-04T17:10:24;14.13;;;11.15;;
38972;SDS011;25333;50.762;4.470;2023-02-04T17:13:09;13.80;;;10.80;;